createdAt,value
2018-12-23T00:01:36.410Z,7.50
2018-12-23T00:04:04.242Z,7.50
2018-12-23T00:06:31.965Z,7.50
2018-12-23T00:08:59.710Z,7.40
2018-12-23T00:11:27.575Z,7.50
2018-12-23T00:13:55.314Z,7.40
2018-12-23T00:16:23.042Z,7.50
2018-12-23T00:18:50.845Z,7.50
2018-12-23T00:21:18.584Z,7.50
2018-12-23T00:23:46.293Z,7.50
2018-12-23T00:26:14.011Z,7.60
2018-12-23T00:28:41.863Z,7.60
2018-12-23T00:31:09.589Z,7.60
2018-12-23T00:33:37.325Z,7.60
2018-12-23T00:36:05.050Z,7.70
2018-12-23T00:38:32.966Z,7.60
2018-12-23T00:41:00.757Z,7.60
2018-12-23T00:43:28.473Z,7.70
2018-12-23T00:45:56.176Z,7.70
2018-12-23T00:48:23.910Z,7.70
2018-12-23T00:50:51.742Z,7.70
2018-12-23T00:53:19.480Z,7.70
2018-12-23T00:55:47.214Z,7.80
2018-12-23T00:58:14.946Z,7.80
2018-12-23T01:00:42.744Z,7.80
2018-12-23T01:03:10.488Z,7.80
2018-12-23T01:05:38.196Z,7.80
2018-12-23T01:08:05.917Z,7.80
2018-12-23T01:10:33.706Z,7.80
2018-12-23T01:13:01.416Z,7.80
2018-12-23T01:15:29.122Z,7.80
2018-12-23T01:17:56.847Z,7.80
2018-12-23T01:20:24.762Z,7.80
2018-12-23T01:22:52.494Z,7.80
2018-12-23T01:25:20.317Z,6.90
2018-12-23T01:27:48.038Z,7.80
2018-12-23T01:30:15.769Z,7.80
2018-12-23T01:32:43.473Z,7.90
2018-12-23T01:35:11.213Z,7.90
2018-12-23T01:37:38.904Z,7.80
2018-12-23T01:40:06.729Z,7.80
2018-12-23T01:42:34.433Z,7.80
2018-12-23T01:45:02.174Z,7.80
2018-12-23T01:47:29.876Z,7.70
2018-12-23T01:49:57.821Z,7.70
2018-12-23T01:52:25.501Z,7.70
2018-12-23T01:54:53.217Z,7.70
2018-12-23T01:57:21.121Z,7.70
2018-12-23T01:59:48.872Z,7.70
2018-12-23T02:02:16.589Z,7.70
2018-12-23T02:04:46.209Z,7.70
2018-12-23T02:07:14.029Z,7.70
2018-12-23T02:09:41.945Z,7.70
2018-12-23T02:12:09.862Z,7.70
2018-12-23T02:14:39.497Z,7.70
2018-12-23T02:17:07.201Z,7.60
2018-12-23T02:19:34.989Z,7.60
2018-12-23T02:22:02.726Z,7.60
2018-12-23T02:24:30.491Z,7.60
2018-12-23T02:26:58.309Z,7.60
2018-12-23T02:29:26.113Z,7.60
2018-12-23T02:31:53.839Z,5.40
2018-12-23T02:34:22.488Z,7.70
2018-12-23T02:36:50.228Z,7.70
2018-12-23T02:39:18.037Z,7.70
2018-12-23T02:41:45.949Z,7.70
2018-12-23T02:44:13.683Z,7.70
2018-12-23T02:46:41.395Z,7.70
2018-12-23T02:49:09.197Z,7.70
2018-12-23T02:51:36.944Z,7.70
2018-12-23T02:54:04.661Z,7.60
2018-12-23T02:56:32.508Z,7.60
2018-12-23T02:59:00.400Z,7.60
2018-12-23T03:01:28.096Z,7.60
2018-12-23T03:03:55.982Z,7.70
2018-12-23T03:06:23.692Z,7.70
2018-12-23T03:08:51.694Z,7.70
2018-12-23T03:11:19.433Z,7.70
2018-12-23T03:13:47.163Z,7.70
2018-12-23T03:16:14.873Z,7.70
2018-12-23T03:18:42.657Z,7.70
2018-12-23T03:21:10.565Z,7.70
2018-12-23T03:23:38.389Z,7.70
2018-12-23T03:26:06.085Z,7.70
2018-12-23T03:28:33.807Z,7.70
2018-12-23T03:31:01.538Z,7.60
2018-12-23T03:33:29.324Z,7.60
2018-12-23T03:35:57.033Z,7.60
2018-12-23T03:38:24.761Z,7.50
2018-12-23T03:40:52.454Z,7.50
2018-12-23T03:43:20.201Z,7.40
2018-12-23T03:45:47.966Z,7.30
2018-12-23T03:48:15.698Z,7.20
2018-12-23T03:50:43.404Z,7.10
2018-12-23T03:53:11.228Z,7.00
2018-12-23T03:55:38.966Z,6.90
2018-12-23T03:58:06.788Z,6.90
2018-12-23T04:00:34.605Z,6.90
2018-12-23T04:03:02.404Z,6.80
2018-12-23T04:05:30.223Z,6.90
2018-12-23T04:07:57.890Z,7.00
2018-12-23T04:10:25.948Z,7.10
2018-12-23T04:12:53.704Z,7.10
2018-12-23T04:15:21.392Z,7.20
2018-12-23T04:17:49.138Z,7.30
2018-12-23T04:20:16.941Z,7.30
2018-12-23T04:22:44.725Z,7.30
2018-12-23T04:25:12.465Z,7.40
2018-12-23T04:27:40.273Z,7.40
2018-12-23T04:30:08.001Z,7.40
2018-12-23T04:32:36.334Z,7.40
2018-12-23T04:35:04.061Z,7.40
2018-12-23T04:37:31.770Z,7.40
2018-12-23T04:39:59.530Z,7.40
2018-12-23T04:42:27.194Z,7.40
2018-12-23T04:44:55.012Z,7.40
2018-12-23T04:47:22.717Z,7.50
2018-12-23T04:49:50.459Z,7.50
2018-12-23T04:52:18.249Z,7.50
2018-12-23T04:54:46.067Z,7.60
2018-12-23T04:57:13.789Z,7.60
2018-12-23T04:59:41.494Z,7.60
2018-12-23T05:02:09.218Z,7.60
2018-12-23T05:04:36.935Z,7.60
2018-12-23T05:07:04.782Z,7.60
2018-12-23T05:09:32.491Z,7.60
2018-12-23T05:12:00.260Z,7.60
2018-12-23T05:14:27.954Z,7.60
2018-12-23T05:16:55.684Z,7.60
2018-12-23T05:19:23.402Z,7.60
2018-12-23T05:21:51.114Z,7.50
2018-12-23T05:24:18.842Z,7.50
2018-12-23T05:26:46.545Z,7.50
2018-12-23T05:29:14.257Z,7.50
2018-12-23T05:31:42.010Z,7.60
2018-12-23T05:34:09.705Z,7.60
2018-12-23T05:36:37.500Z,7.60
2018-12-23T05:39:05.689Z,7.60
2018-12-23T05:41:33.394Z,7.60
2018-12-23T05:44:01.194Z,7.70
2018-12-23T05:46:28.992Z,7.70
2018-12-23T05:48:57.014Z,7.70
2018-12-23T05:51:24.708Z,7.80
2018-12-23T05:53:52.433Z,7.80
2018-12-23T05:56:20.219Z,7.80
2018-12-23T05:58:48.249Z,7.80
2018-12-23T06:01:15.961Z,7.80
2018-12-23T06:03:43.916Z,7.80
2018-12-23T06:06:11.636Z,7.90
2018-12-23T06:08:39.364Z,7.90
2018-12-23T06:11:07.078Z,7.90
2018-12-23T06:13:34.810Z,7.90
2018-12-23T06:16:02.513Z,7.90
2018-12-23T06:18:30.399Z,7.90
2018-12-23T06:20:58.174Z,8.00
2018-12-23T06:23:25.980Z,7.90
2018-12-23T06:25:53.856Z,8.00
2018-12-23T06:28:21.796Z,7.90
2018-12-23T06:30:49.526Z,7.90
2018-12-23T06:33:17.249Z,8.00
2018-12-23T06:35:45.107Z,8.00
2018-12-23T06:38:12.829Z,8.00
2018-12-23T06:40:40.645Z,7.90
2018-12-23T06:43:08.377Z,7.90
2018-12-23T06:45:36.172Z,7.90
2018-12-23T06:48:03.904Z,7.90
2018-12-23T06:50:31.793Z,8.00
2018-12-23T06:52:59.517Z,7.90
2018-12-23T06:55:27.346Z,7.90
2018-12-23T06:57:55.110Z,8.00
2018-12-23T07:00:22.839Z,8.00
2018-12-23T07:02:50.525Z,7.90
2018-12-23T07:05:18.357Z,7.90
2018-12-23T07:07:46.283Z,7.90
2018-12-23T07:10:14.085Z,7.90
2018-12-23T07:12:41.885Z,8.00
2018-12-23T07:15:09.780Z,7.90
2018-12-23T07:17:37.489Z,7.90
2018-12-23T07:20:05.557Z,7.90
2018-12-23T07:22:33.269Z,8.00
2018-12-23T07:25:01.122Z,8.00
2018-12-23T07:27:28.831Z,8.00
2018-12-23T07:29:56.547Z,8.00
2018-12-23T07:32:24.254Z,8.00
2018-12-23T07:34:52.063Z,8.00
2018-12-23T07:37:27.260Z,8.00
2018-12-23T07:39:49.598Z,8.00
2018-12-23T07:42:17.430Z,8.00
2018-12-23T07:44:45.159Z,8.00
2018-12-23T07:47:12.882Z,8.00
2018-12-23T07:49:40.601Z,8.00
2018-12-23T07:52:08.435Z,8.00
2018-12-23T07:54:36.593Z,8.00
2018-12-23T07:57:04.345Z,8.00
2018-12-23T07:59:32.077Z,8.00
2018-12-23T08:01:59.799Z,8.00
2018-12-23T08:04:27.497Z,8.00
2018-12-23T08:06:55.308Z,8.00
2018-12-23T08:09:23.010Z,8.00
2018-12-23T08:11:50.759Z,8.00
2018-12-23T08:14:18.615Z,8.00
2018-12-23T08:16:47.288Z,8.00
2018-12-23T08:19:16.994Z,8.00
2018-12-23T08:21:44.819Z,8.00
2018-12-23T08:24:12.878Z,8.00
2018-12-23T08:26:40.802Z,8.00
2018-12-23T08:29:08.666Z,8.10
2018-12-23T08:31:38.460Z,8.10
2018-12-23T08:34:09.753Z,6.10
2018-12-23T08:36:43.884Z,8.10
2018-12-23T08:39:12.886Z,8.20
2018-12-23T08:41:40.649Z,8.20
2018-12-23T08:44:08.368Z,8.30
2018-12-23T08:46:39.292Z,8.30
2018-12-23T08:49:06.017Z,8.30
2018-12-23T08:51:34.024Z,8.30
2018-12-23T08:54:04.563Z,8.40
2018-12-23T08:56:32.325Z,8.40
2018-12-23T08:59:01.129Z,8.40
2018-12-23T09:01:28.862Z,8.40
2018-12-23T09:03:56.604Z,8.50
2018-12-23T09:06:24.346Z,8.50
2018-12-23T09:08:52.078Z,8.50
2018-12-23T09:11:20.006Z,8.60
2018-12-23T09:13:50.056Z,8.60
2018-12-23T09:16:18.361Z,8.60
2018-12-23T09:18:46.350Z,8.70
2018-12-23T09:21:14.063Z,8.70
2018-12-23T09:23:41.772Z,8.70
2018-12-23T09:26:10.009Z,8.70
2018-12-23T09:28:37.743Z,8.80
2018-12-23T09:31:05.453Z,8.80
2018-12-23T09:33:33.653Z,8.80
2018-12-23T09:36:01.454Z,8.80
2018-12-23T09:38:29.150Z,8.90
2018-12-23T09:40:56.918Z,8.90
2018-12-23T09:43:24.667Z,9.00
2018-12-23T09:45:52.867Z,9.00
2018-12-23T09:48:20.562Z,9.00
2018-12-23T09:50:48.276Z,9.10
2018-12-23T09:53:16.000Z,9.10
2018-12-23T09:55:43.725Z,9.20
2018-12-23T09:58:11.561Z,9.20
2018-12-23T10:00:39.271Z,9.30
2018-12-23T10:03:06.991Z,9.30
2018-12-23T10:05:34.824Z,9.30
2018-12-23T10:08:09.779Z,9.40
2018-12-23T10:10:32.221Z,9.40
2018-12-23T10:12:59.984Z,9.40
2018-12-23T10:15:27.812Z,9.40
2018-12-23T10:17:55.754Z,9.40
2018-12-23T10:20:23.542Z,9.40
2018-12-23T10:22:51.290Z,9.40
2018-12-23T10:25:18.992Z,9.40
2018-12-23T10:27:46.786Z,9.40
2018-12-23T10:30:14.519Z,9.40
2018-12-23T10:32:42.214Z,9.40
2018-12-23T10:35:10.041Z,9.40
2018-12-23T10:37:37.732Z,9.40
2018-12-23T10:40:05.990Z,9.40
2018-12-23T10:42:33.739Z,9.40
2018-12-23T10:45:01.559Z,9.30
2018-12-23T10:47:29.270Z,9.40
2018-12-23T10:49:57.035Z,9.40
2018-12-23T10:52:24.897Z,9.40
2018-12-23T10:54:52.593Z,9.40
2018-12-23T10:57:20.302Z,9.40
2018-12-23T10:59:48.018Z,9.40
2018-12-23T11:02:15.753Z,9.50
2018-12-23T11:04:43.592Z,9.50
2018-12-23T11:07:11.397Z,9.50
2018-12-23T11:09:39.154Z,9.50
2018-12-23T11:12:06.857Z,9.60
2018-12-23T11:14:34.574Z,9.50
2018-12-23T11:17:02.341Z,9.50
2018-12-23T11:19:30.032Z,9.50
2018-12-23T11:21:57.756Z,9.50
2018-12-23T11:24:25.452Z,9.50
2018-12-23T11:26:53.900Z,9.40
2018-12-23T11:29:21.968Z,9.40
2018-12-23T11:31:49.698Z,9.30
2018-12-23T11:34:17.550Z,9.30
2018-12-23T11:36:45.786Z,9.20
2018-12-23T11:39:13.569Z,9.20
2018-12-23T11:41:41.314Z,9.20
2018-12-23T11:44:09.045Z,9.20
2018-12-23T11:46:36.849Z,9.10
2018-12-23T11:49:04.590Z,9.00
2018-12-23T11:51:32.464Z,9.00
2018-12-23T11:54:00.257Z,8.90
2018-12-23T11:56:28.108Z,8.90
2018-12-23T11:58:55.946Z,8.90
2018-12-23T12:01:23.693Z,10.50
2018-12-23T12:03:51.419Z,8.80
2018-12-23T12:09:20.851Z,8.70
2018-12-23T12:11:48.391Z,8.70
2018-12-23T12:14:16.002Z,8.70
2018-12-23T12:16:43.833Z,8.60
2018-12-23T12:19:11.361Z,8.50
2018-12-23T12:21:39.039Z,8.50
2018-12-23T12:24:12.276Z,8.40
2018-12-23T12:26:40.010Z,8.30
2018-12-23T12:29:07.715Z,8.30
2018-12-23T12:31:35.688Z,8.30
2018-12-23T12:34:03.324Z,8.20
2018-12-23T12:36:30.863Z,8.20
2018-12-23T12:38:59.073Z,8.20
2018-12-23T12:41:27.490Z,8.30
2018-12-23T12:43:55.582Z,8.30
2018-12-23T12:46:24.597Z,8.30
2018-12-23T12:48:53.053Z,8.30
2018-12-23T12:51:21.113Z,8.30
2018-12-23T12:53:48.926Z,8.30
2018-12-23T12:56:16.552Z,8.40
2018-12-23T12:58:44.074Z,8.50
2018-12-23T13:01:11.721Z,8.50
2018-12-23T13:03:39.290Z,8.50
2018-12-23T13:06:06.945Z,8.50
2018-12-23T13:08:34.857Z,8.50
2018-12-23T13:11:02.687Z,8.40
2018-12-23T13:13:30.212Z,8.40
2018-12-23T13:15:57.760Z,8.40
2018-12-23T13:18:25.309Z,8.40
2018-12-23T13:20:52.886Z,8.40
2018-12-23T13:23:20.439Z,8.30
2018-12-23T13:25:48.162Z,8.30
2018-12-23T13:28:15.674Z,8.20
2018-12-23T13:30:43.356Z,8.20
2018-12-23T13:33:10.954Z,8.10
2018-12-23T13:35:38.729Z,8.10
2018-12-23T13:38:11.982Z,8.10
2018-12-23T13:40:49.102Z,8.00
2018-12-23T13:43:19.449Z,8.00
2018-12-23T13:49:33.970Z,8.00
2018-12-23T13:52:15.267Z,8.00
2018-12-23T13:54:56.387Z,8.00
2018-12-23T13:57:37.938Z,8.00
2018-12-23T14:00:19.336Z,8.00
2018-12-23T14:03:00.892Z,7.90
2018-12-23T14:05:41.860Z,7.90
2018-12-23T14:08:28.484Z,7.90
2018-12-23T14:11:16.145Z,7.90
2018-12-23T14:14:03.814Z,8.00
2018-12-23T14:16:43.100Z,7.90
2018-12-23T14:19:30.779Z,7.90
2018-12-23T14:22:18.379Z,7.80
2018-12-23T14:25:05.955Z,7.80
2018-12-23T14:27:53.909Z,7.80
2018-12-23T14:31:01.497Z,7.70
2018-12-23T14:33:49.200Z,7.70
2018-12-23T14:36:37.256Z,7.70
2018-12-23T14:39:28.177Z,7.70
2018-12-23T14:42:34.773Z,7.70
2018-12-23T14:45:22.851Z,7.70
2018-12-23T14:48:26.693Z,7.70
2018-12-23T14:51:08.170Z,7.70
2018-12-23T14:53:49.678Z,7.80
2018-12-23T14:56:31.435Z,7.80
2018-12-23T14:59:13.480Z,7.90
2018-12-23T15:01:54.953Z,7.90
2018-12-23T15:04:36.593Z,8.00
2018-12-23T15:07:18.218Z,7.90
2018-12-23T15:10:00.442Z,7.90
2018-12-23T15:12:42.166Z,7.80
2018-12-23T15:15:24.210Z,7.80
2018-12-23T15:18:06.350Z,7.90
2018-12-23T15:20:47.876Z,7.80
2018-12-23T15:23:29.675Z,7.80
2018-12-23T15:26:11.059Z,7.80
2018-12-23T15:28:52.549Z,7.90
2018-12-23T15:31:34.005Z,7.80
2018-12-23T15:34:16.027Z,7.80
2018-12-23T15:36:57.533Z,7.90
2018-12-23T15:39:42.654Z,7.80
2018-12-23T15:42:22.868Z,7.80
2018-12-23T15:45:04.955Z,7.70
2018-12-23T15:47:46.440Z,7.70
2018-12-23T15:50:27.620Z,7.70
2018-12-23T15:53:09.445Z,7.70
2018-12-23T15:55:51.576Z,7.70
2018-12-23T15:58:32.875Z,7.60
2018-12-23T16:01:15.030Z,7.70
2018-12-23T16:03:57.092Z,7.70
2018-12-23T16:06:38.644Z,7.70
2018-12-23T16:09:20.716Z,7.70
2018-12-23T16:12:02.031Z,7.70
2018-12-23T16:14:43.751Z,7.80
2018-12-23T16:17:25.992Z,7.70
2018-12-23T16:20:07.781Z,7.70
2018-12-23T16:22:47.710Z,7.70
2018-12-23T16:25:35.803Z,7.70
2018-12-23T16:28:23.914Z,7.70
2018-12-23T16:31:11.963Z,7.70
2018-12-23T16:34:19.498Z,7.70
2018-12-23T16:37:07.544Z,7.70
2018-12-23T16:40:15.091Z,7.70
2018-12-23T16:43:03.436Z,7.70
2018-12-23T16:45:51.845Z,7.80
2018-12-23T16:48:31.552Z,7.80
2018-12-23T16:51:19.620Z,7.80
2018-12-23T16:54:07.726Z,7.80
2018-12-23T16:56:55.800Z,7.80
2018-12-23T16:59:43.882Z,7.80
2018-12-23T17:02:31.972Z,7.90
2018-12-23T17:05:20.237Z,7.90
2018-12-23T17:08:08.444Z,7.90
2018-12-23T17:10:56.508Z,7.80
2018-12-23T17:13:44.560Z,7.80
2018-12-23T17:16:32.716Z,7.80
2018-12-23T17:19:20.912Z,7.90
2018-12-23T17:22:02.860Z,7.90
2018-12-23T17:24:44.396Z,7.90
2018-12-23T17:27:25.924Z,7.90
2018-12-23T17:30:07.572Z,7.90
2018-12-23T17:32:49.385Z,7.90
2018-12-23T17:35:31.345Z,7.80
2018-12-23T17:38:13.268Z,7.80
2018-12-23T17:40:56.323Z,7.80
2018-12-23T17:43:38.120Z,7.80
2018-12-23T17:46:20.254Z,7.80
2018-12-23T17:49:01.596Z,7.80
2018-12-23T17:51:43.505Z,7.80
2018-12-23T17:54:25.098Z,7.90
2018-12-23T17:57:06.978Z,8.00
2018-12-23T17:59:49.225Z,7.90
2018-12-23T18:02:30.827Z,7.90
2018-12-23T18:05:13.028Z,7.80
2018-12-23T18:07:56.039Z,7.90
2018-12-23T18:13:27.566Z,7.70
2018-12-23T18:16:09.551Z,7.70
2018-12-23T18:18:51.123Z,7.30
2018-12-23T18:24:20.587Z,7.60
2018-12-23T18:27:06.670Z,7.50
2018-12-23T18:29:49.340Z,7.40
2018-12-23T18:32:30.884Z,7.40
2018-12-23T18:35:12.581Z,7.30
2018-12-23T18:37:54.213Z,7.30
2018-12-23T18:40:35.932Z,7.30
2018-12-23T18:43:17.443Z,7.30
2018-12-23T18:45:59.024Z,7.30
2018-12-23T18:48:41.037Z,7.30
2018-12-23T18:51:23.282Z,7.30
2018-12-23T18:54:04.980Z,7.30
2018-12-23T18:56:46.423Z,7.30
2018-12-23T18:59:27.798Z,7.30
2018-12-23T19:02:10.012Z,7.30
2018-12-23T19:04:52.455Z,7.30
2018-12-23T19:07:34.493Z,7.30
2018-12-23T19:10:16.088Z,7.30
2018-12-23T19:12:57.345Z,7.30
2018-12-23T19:15:45.516Z,7.30
2018-12-23T19:18:53.110Z,7.30
2018-12-23T19:21:41.284Z,7.30
2018-12-23T19:24:29.615Z,7.30
2018-12-23T19:27:17.684Z,7.30
2018-12-23T19:30:07.350Z,7.30
2018-12-23T19:32:55.447Z,7.30
2018-12-23T19:35:43.954Z,7.20
2018-12-23T19:38:14.304Z,7.20
2018-12-23T19:41:02.612Z,7.10
2018-12-23T19:44:10.151Z,7.10
2018-12-23T19:46:58.250Z,7.10
2018-12-23T19:50:01.066Z,7.10
2018-12-23T19:52:55.690Z,7.10
2018-12-23T19:55:43.796Z,7.10
2018-12-23T19:58:31.871Z,7.00
2018-12-23T20:01:20.027Z,7.00
2018-12-23T20:04:09.711Z,6.90
2018-12-23T20:06:57.743Z,6.80
2018-12-23T20:10:05.476Z,6.80
2018-12-23T20:12:53.624Z,6.80
2018-12-23T20:15:41.765Z,6.80
2018-12-23T20:18:23.902Z,6.70
2018-12-23T20:21:05.836Z,6.70
2018-12-23T20:23:47.750Z,6.70
2018-12-23T20:26:29.675Z,6.60
2018-12-23T20:29:11.046Z,6.50
2018-12-23T20:31:59.291Z,6.50
2018-12-23T20:34:47.466Z,6.50
2018-12-23T20:37:35.580Z,6.50
2018-12-23T20:40:43.112Z,6.50
2018-12-23T20:43:31.246Z,6.50
2018-12-23T20:46:21.041Z,6.50
2018-12-23T20:49:09.167Z,6.40
2018-12-23T20:51:57.264Z,6.40
2018-12-23T20:54:45.300Z,6.30
2018-12-23T20:57:33.591Z,6.20
2018-12-23T21:00:22.008Z,6.20
2018-12-23T21:03:10.287Z,6.20
2018-12-23T21:05:58.457Z,6.20
2018-12-23T21:08:46.580Z,6.20
2018-12-23T21:11:34.894Z,6.20
2018-12-23T21:14:23.046Z,6.20
2018-12-23T21:17:04.318Z,6.20
2018-12-23T21:19:46.411Z,6.20
2018-12-23T21:22:28.475Z,6.10
2018-12-23T21:25:11.255Z,6.10
2018-12-23T21:27:52.764Z,6.00
2018-12-23T21:30:34.796Z,6.10
2018-12-23T21:33:16.050Z,6.10
2018-12-23T21:35:57.779Z,6.10
2018-12-23T21:38:39.227Z,6.10
2018-12-23T21:41:24.388Z,6.10
2018-12-23T21:44:04.413Z,6.10
2018-12-23T21:46:46.632Z,6.10
2018-12-23T21:49:28.676Z,6.10
2018-12-23T21:52:10.388Z,6.10
2018-12-23T21:54:51.972Z,6.10
2018-12-23T21:57:33.456Z,6.20
2018-12-23T22:00:15.073Z,6.20
2018-12-23T22:02:56.674Z,6.20
2018-12-23T22:05:38.584Z,6.30
2018-12-23T22:08:20.162Z,6.30
2018-12-23T22:11:08.437Z,6.30
2018-12-23T22:13:56.524Z,6.30
2018-12-23T22:16:44.659Z,6.30
2018-12-23T22:19:32.698Z,6.30
2018-12-23T22:22:20.827Z,6.30
2018-12-23T22:25:08.878Z,6.30
2018-12-23T22:27:56.941Z,6.40
2018-12-23T22:30:45.010Z,6.30
2018-12-23T22:33:33.143Z,6.30
2018-12-23T22:36:21.239Z,6.30
2018-12-23T22:39:09.451Z,6.40
2018-12-23T22:42:16.940Z,6.30
2018-12-23T22:45:05.142Z,6.40
2018-12-23T22:47:47.170Z,6.30
2018-12-23T22:50:28.970Z,6.30
2018-12-23T22:53:10.642Z,6.30
2018-12-23T22:55:52.001Z,6.20
2018-12-23T22:58:33.350Z,6.10
2018-12-23T23:01:14.639Z,6.00
2018-12-23T23:03:56.753Z,5.90
2018-12-23T23:06:38.012Z,5.90
2018-12-23T23:09:20.111Z,5.80
2018-12-23T23:12:01.299Z,5.70
2018-12-23T23:14:43.023Z,5.70
2018-12-23T23:17:24.439Z,5.70
2018-12-23T23:20:05.765Z,5.60
2018-12-23T23:22:47.349Z,5.60
2018-12-23T23:25:28.866Z,5.60
2018-12-23T23:28:10.709Z,5.60
2018-12-23T23:30:52.165Z,5.60
2018-12-23T23:33:33.861Z,5.60
2018-12-23T23:36:16.081Z,5.50
2018-12-23T23:38:58.296Z,5.50
2018-12-23T23:41:39.753Z,5.50
2018-12-23T23:44:21.111Z,5.50
2018-12-23T23:47:02.492Z,5.40
2018-12-23T23:49:43.949Z,5.40
2018-12-23T23:52:26.095Z,5.40
2018-12-23T23:55:07.760Z,5.40
2018-12-23T23:57:49.831Z,5.40
